createdAt,value
2023-03-06T00:02:23.695Z,7.54
2023-03-06T00:04:50.719Z,7.51
2023-03-06T00:07:17.440Z,7.37
2023-03-06T00:09:44.041Z,7.08
2023-03-06T00:12:10.644Z,7.30
2023-03-06T00:14:37.322Z,7.23
2023-03-06T00:17:04.033Z,7.26
2023-03-06T00:19:30.650Z,7.56
2023-03-06T00:21:57.348Z,7.47
2023-03-06T00:24:24.003Z,7.39
2023-03-06T00:26:50.855Z,7.18
2023-03-06T00:29:18.071Z,7.13
2023-03-06T00:31:47.790Z,7.08
2023-03-06T00:34:15.254Z,7.08
2023-03-06T00:36:41.984Z,7.31
2023-03-06T00:39:09.519Z,7.29
2023-03-06T00:41:36.173Z,7.28
2023-03-06T00:44:02.807Z,7.40
2023-03-06T00:46:29.453Z,7.30
2023-03-06T00:48:56.181Z,7.20
2023-03-06T00:51:22.883Z,7.39
2023-03-06T00:53:49.930Z,7.26
2023-03-06T00:56:19.896Z,7.16
2023-03-06T00:58:47.760Z,7.32
2023-03-06T01:01:14.507Z,7.23
2023-03-06T01:03:41.278Z,7.13
2023-03-06T01:06:08.195Z,7.22
2023-03-06T01:08:38.461Z,7.26
2023-03-06T01:11:05.579Z,7.24
2023-03-06T01:13:32.198Z,7.16
2023-03-06T01:16:09.899Z,7.02
2023-03-06T01:18:37.290Z,7.04
2023-03-06T01:21:04.892Z,7.03
2023-03-06T01:23:31.798Z,7.17
2023-03-06T01:25:59.173Z,7.13
2023-03-06T01:28:26.157Z,7.11
2023-03-06T01:30:53.181Z,7.21
2023-03-06T01:33:19.963Z,7.39
2023-03-06T01:35:46.614Z,7.06
2023-03-06T01:38:13.914Z,7.30
2023-03-06T01:40:40.671Z,7.48
2023-03-06T01:43:26.110Z,7.49
2023-03-06T01:45:52.925Z,7.36
2023-03-06T01:48:23.552Z,7.29
2023-03-06T01:50:53.074Z,7.29
2023-03-06T01:53:20.705Z,7.31
2023-03-06T01:55:47.472Z,7.35
2023-03-06T01:58:18.335Z,7.34
2023-03-06T02:00:45.492Z,7.33
2023-03-06T02:03:27.237Z,7.36
2023-03-06T02:05:54.225Z,7.23
2023-03-06T02:08:23.146Z,7.32
2023-03-06T02:11:04.883Z,7.22
2023-03-06T02:13:31.786Z,7.30
2023-03-06T02:15:58.971Z,7.34
2023-03-06T02:18:25.997Z,7.32
2023-03-06T02:20:57.312Z,7.26
2023-03-06T02:23:49.137Z,7.34
2023-03-06T02:26:16.914Z,7.41
2023-03-06T02:28:44.463Z,7.43
2023-03-06T02:31:24.618Z,7.34
2023-03-06T02:34:08.530Z,7.26
2023-03-06T02:36:40.690Z,7.30
2023-03-06T02:39:08.461Z,7.20
2023-03-06T02:41:35.443Z,7.26
2023-03-06T02:44:02.403Z,7.11
2023-03-06T02:46:29.149Z,7.12
2023-03-06T02:48:56.470Z,7.26
2023-03-06T02:51:23.292Z,7.32
2023-03-06T02:53:50.118Z,7.38
2023-03-06T02:56:17.043Z,7.40
2023-03-06T02:58:43.658Z,7.49
2023-03-06T03:01:10.559Z,7.32
2023-03-06T03:03:38.020Z,7.23
2023-03-06T03:06:06.564Z,7.13
2023-03-06T03:08:34.994Z,7.18
2023-03-06T03:11:04.820Z,7.30
2023-03-06T03:13:38.064Z,7.18
2023-03-06T03:16:14.100Z,7.35
2023-03-06T03:18:41.844Z,7.29
2023-03-06T03:21:10.533Z,7.28
2023-03-06T03:23:37.264Z,7.21
2023-03-06T03:26:11.465Z,7.12
2023-03-06T03:28:41.490Z,7.20
2023-03-06T03:31:10.844Z,7.29
2023-03-06T03:33:37.981Z,7.28
2023-03-06T03:36:08.637Z,7.30
2023-03-06T03:38:39.429Z,7.25
2023-03-06T03:41:06.356Z,7.17
2023-03-06T03:43:33.626Z,7.17
2023-03-06T03:46:00.870Z,7.19
2023-03-06T03:48:28.451Z,7.18
2023-03-06T03:51:04.540Z,7.22
2023-03-06T03:53:31.939Z,7.23
2023-03-06T03:55:58.632Z,7.19
2023-03-06T03:58:25.483Z,7.09
2023-03-06T04:00:52.211Z,7.10
2023-03-06T04:03:18.866Z,7.01
2023-03-06T04:05:46.114Z,7.17
2023-03-06T04:08:15.501Z,7.18
2023-03-06T04:10:45.069Z,7.17
2023-03-06T04:13:14.341Z,7.12
2023-03-06T04:15:43.528Z,7.20
2023-03-06T04:18:11.059Z,7.09
2023-03-06T04:20:38.110Z,6.97
2023-03-06T04:23:04.977Z,7.02
2023-03-06T04:25:32.214Z,7.08
2023-03-06T04:28:01.791Z,7.06
2023-03-06T04:30:29.585Z,7.00
2023-03-06T04:32:56.624Z,7.01
2023-03-06T04:35:23.457Z,7.03
2023-03-06T04:37:56.964Z,7.12
2023-03-06T04:40:28.692Z,7.18
2023-03-06T04:42:57.663Z,7.18
2023-03-06T04:45:25.670Z,7.20
2023-03-06T04:47:52.736Z,7.24
2023-03-06T04:50:20.355Z,7.13
2023-03-06T04:52:47.000Z,7.27
2023-03-06T04:55:15.795Z,7.30
2023-03-06T04:57:44.601Z,7.26
2023-03-06T05:00:19.833Z,7.19
2023-03-06T05:02:47.721Z,7.11
2023-03-06T05:05:16.037Z,7.17
2023-03-06T05:07:43.642Z,7.11
2023-03-06T05:10:17.942Z,7.09
2023-03-06T05:12:44.882Z,7.20
2023-03-06T05:15:12.897Z,7.14
2023-03-06T05:17:39.907Z,7.13
2023-03-06T05:20:09.607Z,6.92
2023-03-06T05:22:36.488Z,7.08
2023-03-06T05:25:04.837Z,7.03
2023-03-06T05:27:31.596Z,7.00
2023-03-06T05:29:58.296Z,6.92
2023-03-06T05:32:25.111Z,6.91
2023-03-06T05:34:51.853Z,6.80
2023-03-06T05:37:18.509Z,6.97
2023-03-06T05:39:45.427Z,6.92
2023-03-06T05:42:12.082Z,6.99
2023-03-06T05:44:38.708Z,7.03
2023-03-06T05:47:05.593Z,6.95
2023-03-06T05:49:34.166Z,7.02
2023-03-06T05:52:03.963Z,6.95
2023-03-06T05:54:32.187Z,7.05
2023-03-06T05:56:59.061Z,7.08
2023-03-06T05:59:28.360Z,7.03
2023-03-06T06:01:56.061Z,7.00
2023-03-06T06:04:24.318Z,6.99
2023-03-06T06:06:55.220Z,7.11
2023-03-06T06:09:22.438Z,7.11
2023-03-06T06:11:58.984Z,6.93
2023-03-06T06:14:26.246Z,6.99
2023-03-06T06:16:53.025Z,7.07
2023-03-06T06:19:20.331Z,7.03
2023-03-06T06:21:52.629Z,6.95
2023-03-06T06:24:22.309Z,7.07
2023-03-06T06:26:56.712Z,7.00
2023-03-06T06:29:24.321Z,7.00
2023-03-06T06:31:51.768Z,6.99
2023-03-06T06:34:19.012Z,6.94
2023-03-06T06:36:46.343Z,6.97
2023-03-06T06:39:18.020Z,7.04
2023-03-06T06:42:02.302Z,6.99
2023-03-06T06:44:32.543Z,7.02
2023-03-06T06:49:50.689Z,7.02
2023-03-06T06:52:18.617Z,7.05
2023-03-06T06:54:45.831Z,6.99
2023-03-06T06:57:13.510Z,6.79
2023-03-06T06:59:40.256Z,6.81
2023-03-06T07:02:07.158Z,6.74
2023-03-06T07:04:33.912Z,6.83
2023-03-06T07:07:01.174Z,6.83
2023-03-06T07:09:29.990Z,6.90
2023-03-06T07:11:57.549Z,6.92
2023-03-06T07:14:24.550Z,6.90
2023-03-06T07:16:51.220Z,7.01
2023-03-06T07:19:17.937Z,7.04
2023-03-06T07:21:44.590Z,7.01
2023-03-06T07:24:11.301Z,7.08
2023-03-06T07:26:39.036Z,7.02
2023-03-06T07:29:05.768Z,7.16
2023-03-06T07:31:32.691Z,7.21
2023-03-06T07:33:59.362Z,7.12
2023-03-06T07:36:26.079Z,7.27
2023-03-06T07:38:52.739Z,7.34
2023-03-06T07:41:22.379Z,7.39
2023-03-06T07:43:50.154Z,7.02
2023-03-06T07:46:17.401Z,7.29
2023-03-06T07:48:44.508Z,7.30
2023-03-06T07:51:16.732Z,7.10
2023-03-06T07:53:43.690Z,7.11
2023-03-06T07:56:11.818Z,7.03
2023-03-06T07:58:40.808Z,7.12
2023-03-06T08:01:16.552Z,7.06
2023-03-06T08:03:43.465Z,7.09
2023-03-06T08:06:13.145Z,7.19
2023-03-06T08:08:41.726Z,7.10
2023-03-06T08:11:09.816Z,6.74
2023-03-06T08:13:36.879Z,6.99
2023-03-06T08:16:04.347Z,7.13
2023-03-06T08:18:31.458Z,7.25
2023-03-06T08:21:06.595Z,7.33
2023-03-06T08:23:34.578Z,7.33
2023-03-06T08:26:05.002Z,7.19
2023-03-06T08:28:31.789Z,7.19
2023-03-06T08:30:58.747Z,7.37
2023-03-06T08:33:25.429Z,7.26
2023-03-06T08:35:52.711Z,7.31
2023-03-06T08:38:19.419Z,7.19
2023-03-06T08:40:46.130Z,7.37
2023-03-06T08:43:14.140Z,7.38
2023-03-06T08:45:41.171Z,7.34
2023-03-06T08:48:07.962Z,7.35
2023-03-06T08:50:34.782Z,7.45
2023-03-06T08:53:01.542Z,7.38
2023-03-06T08:55:28.321Z,7.21
2023-03-06T08:57:55.049Z,7.27
2023-03-06T09:00:21.912Z,7.19
2023-03-06T09:02:48.883Z,7.14
2023-03-06T09:05:15.708Z,7.17
2023-03-06T09:07:42.345Z,7.12
2023-03-06T09:10:14.967Z,7.05
2023-03-06T09:12:50.536Z,7.09
2023-03-06T09:15:19.122Z,7.02
2023-03-06T09:17:45.947Z,7.03
2023-03-06T09:20:13.342Z,7.06
2023-03-06T09:22:43.616Z,7.12
2023-03-06T09:25:13.149Z,7.12
2023-03-06T09:27:40.976Z,7.10
2023-03-06T09:30:08.817Z,7.10
2023-03-06T09:32:35.492Z,7.14
2023-03-06T09:35:02.223Z,7.21
2023-03-06T09:37:28.894Z,7.18
2023-03-06T09:39:55.512Z,7.16
2023-03-06T09:42:23.704Z,7.13
2023-03-06T09:44:54.651Z,7.16
2023-03-06T09:47:49.413Z,7.22
2023-03-06T09:50:18.793Z,7.17
2023-03-06T09:53:19.144Z,7.08
2023-03-06T09:55:56.721Z,7.27
2023-03-06T09:58:26.782Z,7.29
2023-03-06T10:00:59.309Z,7.35
2023-03-06T10:03:47.922Z,7.44
2023-03-06T10:06:23.911Z,7.25
2023-03-06T10:09:18.737Z,7.18
2023-03-06T10:12:04.814Z,7.00
2023-03-06T10:14:45.075Z,7.23
2023-03-06T10:17:23.804Z,7.40
2023-03-06T10:19:51.024Z,7.47
2023-03-06T10:22:46.078Z,7.43
2023-03-06T10:25:22.403Z,7.56
2023-03-06T10:27:55.396Z,7.55
2023-03-06T10:30:38.449Z,7.59
2023-03-06T10:33:06.228Z,7.55
2023-03-06T10:35:55.058Z,7.57
2023-03-06T10:38:26.446Z,7.44
2023-03-06T10:41:11.581Z,7.54
2023-03-06T10:44:04.577Z,7.50
2023-03-06T10:46:37.187Z,7.47
2023-03-06T10:49:09.108Z,7.47
2023-03-06T10:51:35.970Z,7.51
2023-03-06T10:54:18.380Z,7.39
2023-03-06T10:56:46.906Z,7.58
2023-03-06T10:59:18.270Z,7.52
2023-03-06T11:02:23.514Z,7.55
2023-03-06T11:04:52.781Z,7.62
2023-03-06T11:07:28.392Z,7.72
2023-03-06T11:09:58.101Z,7.72
2023-03-06T11:12:28.965Z,7.79
2023-03-06T11:15:14.108Z,7.91
2023-03-06T11:18:10.201Z,7.87
2023-03-06T11:20:52.477Z,7.97
2023-03-06T11:23:38.221Z,7.94
2023-03-06T11:26:17.147Z,7.67
2023-03-06T11:28:45.661Z,7.93
2023-03-06T11:31:23.991Z,8.01
2023-03-06T11:33:57.228Z,8.22
2023-03-06T11:36:54.485Z,8.08
2023-03-06T11:39:30.347Z,8.12
2023-03-06T11:41:59.688Z,8.26
2023-03-06T11:44:43.411Z,7.98
2023-03-06T11:47:39.023Z,8.18
2023-03-06T11:50:24.620Z,8.16
2023-03-06T11:52:56.049Z,7.88
2023-03-06T11:55:31.786Z,8.22
2023-03-06T11:58:35.107Z,8.17
2023-03-06T12:01:36.329Z,8.05
2023-03-06T12:04:24.755Z,8.08
2023-03-06T12:07:04.048Z,7.96
2023-03-06T12:09:54.864Z,8.35
2023-03-06T12:12:34.982Z,8.53
2023-03-06T12:15:07.138Z,8.51
2023-03-06T12:17:58.695Z,8.40
2023-03-06T12:20:31.523Z,8.37
2023-03-06T12:23:16.736Z,8.49
2023-03-06T12:25:49.114Z,8.46
2023-03-06T12:28:50.306Z,8.17
2023-03-06T12:31:23.616Z,8.27
2023-03-06T12:34:14.038Z,8.20
2023-03-06T12:37:02.260Z,8.13
2023-03-06T12:40:12.335Z,8.12
2023-03-06T12:42:42.340Z,8.35
2023-03-06T12:45:30.020Z,8.04
2023-03-06T12:47:57.346Z,8.01
2023-03-06T12:50:30.196Z,8.05
2023-03-06T12:53:07.276Z,7.87
2023-03-06T12:55:42.292Z,8.24
2023-03-06T12:58:27.951Z,8.26
2023-03-06T13:01:31.659Z,8.66
2023-03-06T13:04:13.592Z,8.65
2023-03-06T13:07:01.607Z,8.67
2023-03-06T13:09:47.721Z,8.31
2023-03-06T13:12:27.725Z,8.11
2023-03-06T13:15:18.737Z,7.97
2023-03-06T13:17:45.431Z,8.05
2023-03-06T13:20:15.327Z,7.53
2023-03-06T13:22:47.064Z,7.31
2023-03-06T13:25:16.786Z,7.27
2023-03-06T13:27:46.763Z,7.29
2023-03-06T13:30:41.193Z,7.22
2023-03-06T13:33:33.044Z,7.01
2023-03-06T13:36:00.440Z,7.14
2023-03-06T13:38:58.093Z,6.80
2023-03-06T13:41:27.979Z,6.57
2023-03-06T13:43:56.579Z,6.57
2023-03-06T13:46:26.160Z,6.83
2023-03-06T13:49:08.152Z,6.97
2023-03-06T13:51:40.694Z,7.05
2023-03-06T13:54:26.217Z,6.87
2023-03-06T13:56:58.951Z,7.04
2023-03-06T13:59:38.347Z,7.19
2023-03-06T14:02:30.017Z,7.27
2023-03-06T14:04:59.971Z,7.10
2023-03-06T14:07:41.476Z,7.20
2023-03-06T14:10:08.081Z,7.48
2023-03-06T14:12:38.942Z,7.56
2023-03-06T14:15:20.698Z,7.50
2023-03-06T14:18:13.118Z,7.33
2023-03-06T14:20:39.758Z,7.53
2023-03-06T14:23:19.776Z,7.49
2023-03-06T14:25:48.409Z,7.59
2023-03-06T14:28:32.755Z,7.65
2023-03-06T14:31:01.921Z,7.62
2023-03-06T14:33:34.612Z,7.62
2023-03-06T14:36:08.162Z,7.62
2023-03-06T14:38:46.177Z,7.85
2023-03-06T14:41:14.180Z,7.75
2023-03-06T14:43:40.964Z,7.85
2023-03-06T14:46:07.729Z,7.85
2023-03-06T14:48:45.806Z,7.88
2023-03-06T14:51:21.848Z,7.97
2023-03-06T14:53:50.531Z,7.78
2023-03-06T14:56:23.407Z,8.05
2023-03-06T14:58:49.983Z,7.90
2023-03-06T15:01:23.655Z,7.94
2023-03-06T15:03:57.943Z,7.95
2023-03-06T15:06:33.223Z,7.93
2023-03-06T15:09:08.778Z,7.53
2023-03-06T15:11:56.061Z,7.89
2023-03-06T15:14:40.044Z,7.84
2023-03-06T15:17:18.977Z,7.29
2023-03-06T15:19:48.497Z,7.66
2023-03-06T15:22:26.839Z,7.75
2023-03-06T15:24:54.788Z,7.85
2023-03-06T15:27:29.617Z,7.98
2023-03-06T15:30:12.020Z,7.66
2023-03-06T15:32:42.468Z,7.66
2023-03-06T15:35:24.643Z,7.78
2023-03-06T15:37:51.684Z,7.61
2023-03-06T15:40:23.954Z,7.63
2023-03-06T15:42:50.754Z,7.53
2023-03-06T15:45:20.447Z,7.28
2023-03-06T15:47:48.693Z,7.42
2023-03-06T15:50:16.981Z,7.23
2023-03-06T15:52:44.973Z,7.33
2023-03-06T15:55:13.283Z,7.39
2023-03-06T15:57:52.932Z,7.48
2023-03-06T16:00:34.336Z,7.36
2023-03-06T16:03:01.846Z,7.60
2023-03-06T16:05:29.342Z,7.51
2023-03-06T16:07:56.452Z,7.61
2023-03-06T16:10:26.576Z,7.50
2023-03-06T16:13:00.711Z,7.42
2023-03-06T16:15:29.012Z,7.59
2023-03-06T16:17:56.731Z,7.40
2023-03-06T16:20:25.736Z,7.45
2023-03-06T16:22:53.828Z,7.69
2023-03-06T16:25:21.947Z,7.49
2023-03-06T16:28:00.990Z,7.58
2023-03-06T16:30:32.909Z,7.52
2023-03-06T16:33:00.215Z,7.43
2023-03-06T16:35:27.235Z,7.48
2023-03-06T16:37:54.227Z,7.41
2023-03-06T16:40:29.034Z,7.07
2023-03-06T16:42:56.087Z,7.23
2023-03-06T16:45:23.839Z,7.07
2023-03-06T16:47:50.615Z,7.16
2023-03-06T16:50:37.550Z,7.31
2023-03-06T16:53:04.794Z,7.13
2023-03-06T16:55:31.397Z,7.12
2023-03-06T16:57:58.010Z,7.36
2023-03-06T17:00:25.073Z,7.11
2023-03-06T17:02:52.322Z,7.28
2023-03-06T17:05:19.397Z,7.45
2023-03-06T17:07:46.588Z,7.31
2023-03-06T17:10:15.842Z,7.11
2023-03-06T17:12:43.071Z,7.14
2023-03-06T17:15:10.889Z,7.07
2023-03-06T17:17:37.670Z,7.06
2023-03-06T17:20:11.779Z,7.04
2023-03-06T17:22:38.750Z,7.13
2023-03-06T17:25:08.417Z,7.01
2023-03-06T17:27:35.564Z,7.06
2023-03-06T17:30:03.401Z,6.81
2023-03-06T17:32:30.186Z,6.82
2023-03-06T17:34:57.046Z,6.87
2023-03-06T17:37:23.943Z,6.99
2023-03-06T17:39:50.764Z,7.06
2023-03-06T17:42:17.408Z,6.97
2023-03-06T17:44:44.023Z,6.82
2023-03-06T17:47:10.885Z,6.87
2023-03-06T17:49:37.614Z,6.81
2023-03-06T17:52:05.587Z,6.98
2023-03-06T17:54:33.180Z,6.85
2023-03-06T17:57:03.200Z,6.95
2023-03-06T17:59:31.188Z,6.93
2023-03-06T18:01:59.272Z,6.62
2023-03-06T18:04:26.940Z,6.99
2023-03-06T18:06:53.629Z,6.85
2023-03-06T18:09:20.299Z,6.91
2023-03-06T18:11:47.010Z,6.76
2023-03-06T18:14:14.021Z,6.86
2023-03-06T18:16:40.708Z,6.80
2023-03-06T18:19:07.429Z,6.76
2023-03-06T18:21:34.128Z,6.62
2023-03-06T18:24:00.761Z,6.76
2023-03-06T18:26:29.809Z,6.74
2023-03-06T18:28:58.824Z,6.80
2023-03-06T18:31:27.595Z,6.70
2023-03-06T18:33:56.877Z,6.81
2023-03-06T18:36:25.683Z,6.80
2023-03-06T18:38:52.350Z,6.99
2023-03-06T18:41:20.492Z,6.96
2023-03-06T18:43:55.124Z,6.93
2023-03-06T18:46:22.653Z,6.91
2023-03-06T18:48:49.426Z,6.87
2023-03-06T18:51:17.042Z,6.93
2023-03-06T18:53:44.048Z,6.88
2023-03-06T18:56:17.524Z,6.59
2023-03-06T18:58:44.739Z,6.33
2023-03-06T19:01:11.821Z,6.36
2023-03-06T19:03:38.900Z,6.51
2023-03-06T19:06:11.407Z,6.63
2023-03-06T19:08:39.654Z,6.75
2023-03-06T19:11:12.395Z,6.65
2023-03-06T19:13:39.189Z,5.97
2023-03-06T19:16:06.735Z,6.08
2023-03-06T19:18:33.523Z,6.03
2023-03-06T19:21:10.565Z,6.02
2023-03-06T19:23:37.946Z,6.07
2023-03-06T19:26:04.973Z,6.06
2023-03-06T19:28:31.625Z,5.62
2023-03-06T19:30:58.390Z,5.94
2023-03-06T19:33:25.221Z,5.88
2023-03-06T19:35:51.995Z,5.81
2023-03-06T19:38:18.781Z,5.54
2023-03-06T19:40:50.065Z,5.53
2023-03-06T19:43:16.755Z,5.60
2023-03-06T19:45:44.299Z,5.65
2023-03-06T19:48:13.417Z,5.47
2023-03-06T19:50:40.842Z,5.40
2023-03-06T19:53:08.374Z,5.56
2023-03-06T19:55:35.018Z,5.39
2023-03-06T19:58:01.856Z,5.24
2023-03-06T20:00:28.716Z,5.47
2023-03-06T20:02:56.469Z,5.50
2023-03-06T20:05:23.255Z,5.15
2023-03-06T20:07:50.564Z,5.28
2023-03-06T20:10:17.642Z,5.51
2023-03-06T20:12:44.314Z,5.24
2023-03-06T20:15:11.441Z,5.25
2023-03-06T20:17:40.434Z,5.42
2023-03-06T20:20:09.667Z,5.24
2023-03-06T20:22:36.375Z,5.37
2023-03-06T20:25:03.501Z,5.40
2023-03-06T20:27:30.247Z,5.54
2023-03-06T20:29:56.927Z,5.37
2023-03-06T20:32:23.629Z,5.32
2023-03-06T20:34:50.325Z,5.56
2023-03-06T20:37:17.090Z,5.29
2023-03-06T20:39:43.889Z,5.25
2023-03-06T20:42:10.616Z,5.46
2023-03-06T20:44:37.346Z,5.42
2023-03-06T20:47:04.063Z,5.52
2023-03-06T20:49:30.788Z,5.50
2023-03-06T20:51:57.442Z,5.49
2023-03-06T20:54:24.540Z,5.71
2023-03-06T20:56:51.280Z,5.47
2023-03-06T20:59:18.688Z,5.60
2023-03-06T21:01:46.811Z,5.63
2023-03-06T21:04:14.637Z,5.66
2023-03-06T21:06:46.116Z,5.69
2023-03-06T21:09:14.813Z,5.57
2023-03-06T21:11:41.587Z,5.47
2023-03-06T21:14:08.349Z,5.66
2023-03-06T21:16:35.833Z,5.66
2023-03-06T21:19:02.726Z,5.94
2023-03-06T21:21:32.745Z,5.57
2023-03-06T21:23:59.612Z,5.71
2023-03-06T21:26:28.819Z,5.70
2023-03-06T21:28:58.987Z,5.77
2023-03-06T21:31:26.212Z,5.91
2023-03-06T21:33:52.918Z,5.86
2023-03-06T21:36:21.734Z,5.92
2023-03-06T21:38:49.555Z,5.75
2023-03-06T21:41:20.274Z,5.92
2023-03-06T21:43:47.296Z,6.10
2023-03-06T21:46:14.132Z,5.71
2023-03-06T21:48:40.894Z,6.07
2023-03-06T21:51:10.349Z,5.82
2023-03-06T21:53:37.745Z,5.74
2023-03-06T21:56:05.125Z,5.74
2023-03-06T21:58:31.940Z,5.83
2023-03-06T22:00:58.705Z,5.67
2023-03-06T22:03:25.614Z,5.96
2023-03-06T22:05:52.710Z,6.01
2023-03-06T22:08:21.330Z,6.15
2023-03-06T22:10:48.926Z,5.82
2023-03-06T22:13:16.120Z,5.94
2023-03-06T22:15:52.984Z,6.15
2023-03-06T22:18:19.686Z,6.26
2023-03-06T22:20:46.524Z,6.17
2023-03-06T22:23:13.250Z,6.15
2023-03-06T22:25:40.208Z,6.16
2023-03-06T22:28:06.922Z,6.39
2023-03-06T22:30:33.713Z,6.50
2023-03-06T22:33:01.587Z,6.21
2023-03-06T22:35:28.250Z,6.22
2023-03-06T22:37:54.888Z,6.41
2023-03-06T22:40:21.742Z,6.24
2023-03-06T22:42:48.491Z,6.26
2023-03-06T22:45:15.207Z,6.18
2023-03-06T22:47:41.951Z,6.43
2023-03-06T22:50:09.566Z,6.20
2023-03-06T22:52:36.219Z,6.17
2023-03-06T22:55:02.871Z,6.09
2023-03-06T22:57:29.976Z,6.00
2023-03-06T22:59:56.674Z,5.95
2023-03-06T23:02:23.333Z,5.95
2023-03-06T23:04:53.269Z,6.20
2023-03-06T23:07:21.066Z,5.90
2023-03-06T23:09:48.638Z,5.87
2023-03-06T23:12:34.108Z,5.50
2023-03-06T23:15:19.406Z,5.60
2023-03-06T23:18:04.817Z,5.45
2023-03-06T23:20:50.154Z,5.35
2023-03-06T23:23:36.610Z,5.48
2023-03-06T23:26:05.885Z,5.47
2023-03-06T23:28:33.148Z,5.69
2023-03-06T23:30:59.760Z,5.10
2023-03-06T23:33:26.393Z,5.27
2023-03-06T23:35:53.127Z,5.47
2023-03-06T23:38:19.765Z,5.18
2023-03-06T23:40:46.442Z,5.09
2023-03-06T23:43:13.294Z,5.16
2023-03-06T23:45:40.157Z,5.20
2023-03-06T23:48:08.054Z,5.18
2023-03-06T23:50:34.914Z,5.25
2023-03-06T23:53:01.688Z,4.98
2023-03-06T23:55:28.671Z,5.00
2023-03-06T23:57:55.619Z,5.06
